Pinch, West Virginia
Current Conditions -  °F | °C
As of 3:54 PM on Friday 24 Oct 2014 (Local Time) from KCRW Reporting Station
Scattered Clouds Scattered Clouds  
Wind Chill: 62°   Ceiling: Unl
Heat Index: 62°   Visibility: 10mi
Dew Point: 42°   Wind: 6mph
Humidity: 48%   Direction: 240°WSW
Pressure: 30.05"   Gusts: NA
Location:  38.41°N, 81.48°W
Report Text: KCRW 241954Z 24005KT 10SM FEW180 SCT300 17/06 A3005 RMK AO2 SLP176 T01670056
Loading
Personal Weather Stations






























Interactive Weather Map
Tropical Storm Tracking
New forecast layout! Learn more

10-Day Weather Forecast

Advertisements
Track Severe Weather on mobile